Kahului Airport

Airport
ICAO code: 
PHOG
IATA Code: 
OGG
Summary
ICAO Region: 
NAM
Territory: 
Location: 
Kahului, Hawaii
Serving: 
Kahului
Elevation: 
54 ft
Coordinates: 
Aerial View: 
20° 53' 47.023" N, 156° 26' 2.75" W
Airport BS: 
Bird Strike
Metar
Observation
PHOG 010954Z AUTO 00000KT 10SM CLR 22/18 A2996 RMK AO2 SLP150 T02170183 403170200 TSNO
Station
Kahului, Kahului Airport
Date/Time
2021-12-01 09:54:00
Wind direction
Wind speed
00 kts
Lowest cloud amount
n/a
Temperature
21.7°C
Dew point
18.3°C
Humidity
81%
Weather condition
n/a

Description

Kahului Airport is a regional airport in the state of Hawaii, located east of the Kahului CDP in Maui County on the island of Maui near Haleakala.

Climatology

Tropical Savanna climate (Köppen climate classification As) - monthly mean temperature above 18°C in every month of the year and a pronounced dry season.

Runways

Designator Length Width Surface Rops
5/23 1521 46 ASP Yes/Yes
2/20 2132 46 ASP Yes/Yes
Airport map: 
Aerial View: 

SKYbrary Partners:

Safety knowledge contributed by: